Winsted, Minnesota
Current Conditions -  °F | °C
As of 12:34 AM on Wednesday 26 Nov 2014 (Local Time) from KGYL Reporting Station
Broken Clouds Broken Clouds  
Wind Chill: 16°   Ceiling: 4300
Heat Index: 26°   Visibility: 10mi
Dew Point: 20°   Wind: 9mph
Humidity: 81%   Direction: 100°E
Pressure: 29.97"   Gusts: NA
Location:  44.96°N, 94.05°W
Report Text: KGYL 260634Z AUTO 10008KT 10SM BKN043 M04/M06 A2997 RMK AO2 T10361064
Loading
Personal Weather Stations






























Interactive Weather Map New forecast layout! Learn more

10-Day Weather Forecast

Advertisements
Track Severe Weather on mobile